Time;durP1;ratioP1;P1;durP2;ratioP2;P2;SDS_P1;SDS_P2;PMS_P1;PMS_P2;Temp;Humidity;BMP_temperature;BMP_pressure;BME280_temperature;BME280_humidity;BME280_pressure;Samples;Min_cycle;Max_cycle;Signal;HPM_P1;HPM_P2
2021/10/06 00:00:54;;;;;;;4.70;1.80;;;9.10;99.90;;;;;;5090187;28;20120;-89
2021/10/06 00:03:42;;;;;;;6.38;1.75;;;9.10;99.90;;;;;;5084608;28;20052;-89
2021/10/06 00:06:32;;;;;;;2.55;1.63;;;9.10;99.90;;;;;;5064032;28;20055;-89
2021/10/06 00:09:19;;;;;;;5.32;1.58;;;9.00;99.90;;;;;;5078649;28;20052;-87
2021/10/06 00:12:11;;;;;;;5.63;2.00;;;9.10;99.90;;;;;;5063021;28;20036;-89
2021/10/06 00:14:59;;;;;;;7.30;2.17;;;9.00;99.90;;;;;;5090903;28;20202;-89
2021/10/06 00:17:48;;;;;;;8.23;1.67;;;9.00;99.90;;;;;;5085295;28;20278;-87
2021/10/06 00:20:36;;;;;;;7.53;1.90;;;8.90;99.90;;;;;;5087692;28;20462;-87
2021/10/06 00:23:23;;;;;;;4.18;1.85;;;8.90;99.90;;;;;;5091654;28;20553;-87
2021/10/06 00:26:13;;;;;;;10.40;2.03;;;8.80;99.90;;;;;;5046762;28;20233;-85
2021/10/06 00:29:00;;;;;;;4.05;1.65;;;8.80;99.90;;;;;;5095452;28;20162;-87
2021/10/06 00:31:47;;;;;;;6.35;1.83;;;8.80;99.90;;;;;;5084303;28;20044;-92
2021/10/06 00:34:35;;;;;;;4.35;1.83;;;8.80;99.90;;;;;;5082820;28;20043;-87
2021/10/06 00:37:24;;;;;;;6.25;2.05;;;8.80;99.90;;;;;;5078391;28;20043;-91
2021/10/06 00:40:12;;;;;;;8.98;1.90;;;8.70;99.90;;;;;;5093344;28;20551;-91
2021/10/06 00:42:59;;;;;;;14.68;2.00;;;8.70;99.90;;;;;;5090604;28;20051;-86
2021/10/06 00:45:47;;;;;;;5.55;2.03;;;8.70;99.90;;;;;;5081497;28;20113;-87
2021/10/06 00:48:35;;;;;;;3.20;2.05;;;8.70;99.90;;;;;;5093383;28;20091;-88
2021/10/06 00:51:22;;;;;;;4.05;1.83;;;8.60;99.90;;;;;;5079685;28;20160;-86
2021/10/06 00:54:12;;;;;;;7.38;2.20;;;8.60;99.90;;;;;;5093794;28;20040;-86
2021/10/06 00:56:59;;;;;;;3.53;2.17;;;8.60;99.90;;;;;;5064634;28;20384;-91
2021/10/06 00:59:46;;;;;;;11.15;2.00;;;8.60;99.90;;;;;;5093900;28;20101;-91
2021/10/06 01:02:34;;;;;;;6.97;1.90;;;8.60;99.90;;;;;;5094468;28;20043;-90
2021/10/06 01:05:21;;;;;;;4.07;1.80;;;8.60;99.90;;;;;;5094132;28;20089;-86
2021/10/06 01:08:08;;;;;;;2.17;1.50;;;8.60;99.90;;;;;;5094911;28;20051;-91
2021/10/06 01:10:56;;;;;;;5.50;1.75;;;8.70;99.90;;;;;;5098761;28;20051;-89
2021/10/06 01:13:43;;;;;;;6.32;1.70;;;8.70;99.90;;;;;;5105007;28;20044;-89
2021/10/06 01:16:31;;;;;;;4.65;1.50;;;8.70;99.90;;;;;;5101999;28;20039;-87
2021/10/06 01:19:24;;;;;;;4.03;1.50;;;8.70;99.90;;;;;;5100612;28;20503;-87
2021/10/06 01:22:17;;;;;;;7.70;1.60;;;8.70;99.90;;;;;;5095694;28;20089;-86
2021/10/06 01:25:07;;;;;;;2.50;1.20;;;8.80;99.90;;;;;;5095868;28;20121;-88
2021/10/06 01:27:58;;;;;;;4.85;1.60;;;8.80;99.90;;;;;;5095909;28;20048;-90
2021/10/06 01:30:45;;;;;;;3.95;1.55;;;8.80;99.90;;;;;;5079963;28;20490;-88
2021/10/06 01:33:32;;;;;;;2.67;1.40;;;8.70;99.90;;;;;;5096090;28;20374;-86
2021/10/06 01:36:20;;;;;;;2.58;1.10;;;8.70;99.90;;;;;;5089091;28;20051;-88
2021/10/06 01:39:09;;;;;;;2.45;1.27;;;8.60;99.90;;;;;;5097871;28;20093;-88
2021/10/06 01:42:01;;;;;;;2.75;1.40;;;8.50;99.90;;;;;;5096176;28;20478;-85
2021/10/06 01:44:52;;;;;;;7.38;1.60;;;8.50;99.90;;;;;;5081777;28;20681;-87
2021/10/06 01:47:39;;;;;;;4.30;1.30;;;8.50;99.90;;;;;;5086473;28;20052;-87
2021/10/06 01:50:28;;;;;;;5.78;1.95;;;8.50;99.90;;;;;;5082210;28;20032;-86
2021/10/06 01:53:16;;;;;;;2.67;1.60;;;8.50;99.90;;;;;;5080555;28;20376;-87
2021/10/06 01:56:03;;;;;;;4.97;1.65;;;8.50;99.90;;;;;;5092296;28;20058;-88
2021/10/06 01:58:51;;;;;;;10.40;1.85;;;8.50;99.90;;;;;;5078931;28;20109;-88
2021/10/06 02:01:40;;;;;;;4.22;1.98;;;8.30;99.90;;;;;;5093282;28;20135;-88
2021/10/06 02:04:28;;;;;;;6.35;1.77;;;8.30;99.90;;;;;;5058342;28;20447;-86
2021/10/06 02:07:15;;;;;;;5.43;1.98;;;8.20;99.90;;;;;;5079043;28;20080;-89
2021/10/06 02:10:05;;;;;;;5.55;1.70;;;8.10;99.90;;;;;;5080077;28;20147;-88
2021/10/06 02:12:52;;;;;;;6.25;2.17;;;8.10;99.90;;;;;;5072854;28;20041;-88
2021/10/06 02:15:40;;;;;;;7.07;2.22;;;8.10;99.90;;;;;;5057594;28;20337;-88
2021/10/06 02:18:28;;;;;;;9.10;2.60;;;8.10;99.90;;;;;;5054429;28;20186;-86
2021/10/06 02:21:15;;;;;;;6.95;2.00;;;8.20;99.90;;;;;;5073358;28;20051;-87
2021/10/06 02:24:04;;;;;;;7.05;2.45;;;8.20;99.90;;;;;;5075418;28;20430;-88
2021/10/06 02:26:52;;;;;;;5.90;2.03;;;8.20;99.90;;;;;;5075323;28;20143;-87
2021/10/06 02:29:39;;;;;;;6.85;2.00;;;8.10;99.90;;;;;;5077423;28;20364;-85
2021/10/06 02:32:29;;;;;;;8.10;2.20;;;8.10;99.90;;;;;;5092037;28;20097;-87
2021/10/06 02:35:16;;;;;;;7.57;1.92;;;8.10;99.90;;;;;;5089623;28;20192;-89
2021/10/06 02:38:03;;;;;;;7.03;2.20;;;8.10;99.90;;;;;;5091330;28;20042;-90
2021/10/06 02:40:51;;;;;;;6.57;2.28;;;8.10;99.90;;;;;;5072523;28;20449;-86
2021/10/06 02:43:38;;;;;;;6.68;2.30;;;8.10;99.90;;;;;;5062328;28;20052;-86
2021/10/06 02:46:26;;;;;;;6.95;2.50;;;8.10;99.90;;;;;;5090445;28;20498;-88
2021/10/06 02:49:18;;;;;;;6.63;2.67;;;8.00;99.90;;;;;;5065946;28;20044;-86
2021/10/06 02:52:05;;;;;;;3.35;2.13;;;7.90;99.90;;;;;;5084494;28;20032;-87
2021/10/06 02:54:53;;;;;;;5.75;3.08;;;7.90;99.90;;;;;;5074613;28;20082;-90
2021/10/06 02:57:40;;;;;;;10.43;2.80;;;7.90;99.90;;;;;;5070438;28;20051;-87
2021/10/06 03:00:27;;;;;;;7.38;2.70;;;7.80;99.90;;;;;;5084173;28;20105;-89
2021/10/06 03:03:15;;;;;;;10.40;2.50;;;7.80;99.90;;;;;;5077659;28;20130;-85
2021/10/06 03:06:03;;;;;;;9.55;2.88;;;7.70;99.90;;;;;;5080889;28;20255;-88
2021/10/06 03:08:50;;;;;;;5.75;2.53;;;7.70;99.90;;;;;;5085253;28;20096;-86
2021/10/06 03:11:38;;;;;;;9.52;2.70;;;7.70;99.90;;;;;;5090968;28;20040;-87
2021/10/06 03:14:25;;;;;;;7.30;2.40;;;7.60;99.90;;;;;;5088010;28;20048;-87
2021/10/06 03:17:17;;;;;;;7.25;2.88;;;7.60;99.90;;;;;;5091558;28;20672;-89
2021/10/06 03:20:07;;;;;;;5.53;2.70;;;7.60;99.90;;;;;;5083150;28;20126;-85
2021/10/06 03:22:54;;;;;;;6.78;3.08;;;7.60;99.90;;;;;;5075937;28;20107;-91
2021/10/06 03:25:42;;;;;;;7.50;3.00;;;7.60;99.90;;;;;;5076471;28;20178;-91
2021/10/06 03:28:29;;;;;;;6.40;3.20;;;7.50;99.90;;;;;;5080564;28;20445;-90
2021/10/06 03:31:19;;;;;;;5.00;2.95;;;7.40;99.90;;;;;;5085187;28;20059;-91
2021/10/06 03:34:06;;;;;;;5.22;2.92;;;7.40;99.90;;;;;;5063692;28;20109;-90
2021/10/06 03:36:58;;;;;;;7.53;2.53;;;7.40;99.90;;;;;;5091257;28;20044;-91
2021/10/06 03:39:45;;;;;;;5.88;2.60;;;7.30;99.90;;;;;;5077938;28;20464;-91
2021/10/06 03:42:32;;;;;;;6.78;2.65;;;7.30;99.90;;;;;;5077382;28;20040;-92
2021/10/06 03:45:20;;;;;;;4.07;2.38;;;7.10;99.90;;;;;;5083531;28;20056;-90
2021/10/06 03:48:09;;;;;;;8.95;2.70;;;7.00;99.90;;;;;;5084717;28;20059;-91
2021/10/06 03:50:57;;;;;;;6.68;2.70;;;6.90;99.90;;;;;;5072641;28;20266;-91
2021/10/06 03:53:44;;;;;;;5.85;2.78;;;6.80;99.90;;;;;;5087495;28;20043;-91
2021/10/06 03:56:31;;;;;;;5.43;2.53;;;6.70;99.90;;;;;;5102317;28;20040;-91
2021/10/06 03:59:19;;;;;;;9.48;4.47;;;6.50;99.90;;;;;;5087114;28;20071;-91
2021/10/06 04:02:08;;;;;;;12.00;4.07;;;6.50;99.90;;;;;;5080672;28;20044;-91
2021/10/06 04:04:56;;;;;;;9.65;3.90;;;6.40;99.90;;;;;;5061657;28;20040;-91
2021/10/06 04:07:45;;;;;;;11.27;3.38;;;6.50;99.90;;;;;;5077271;28;20059;-91
2021/10/06 04:10:39;;;;;;;11.25;3.58;;;6.50;99.90;;;;;;5096984;28;20044;-92
2021/10/06 04:13:29;;;;;;;5.15;3.15;;;6.60;99.90;;;;;;5091591;28;20048;-91
2021/10/06 04:16:16;;;;;;;12.55;4.20;;;6.70;99.90;;;;;;5087388;28;20155;-91
2021/10/06 04:19:04;;;;;;;9.45;3.05;;;6.70;99.90;;;;;;5089562;28;20491;-90
2021/10/06 04:21:51;;;;;;;10.10;3.45;;;6.70;99.90;;;;;;5075795;28;20527;-90
2021/10/06 04:24:39;;;;;;;8.60;3.83;;;6.80;99.90;;;;;;5097728;28;20062;-93
2021/10/06 04:27:29;;;;;;;6.28;3.58;;;6.80;99.90;;;;;;5096055;28;20071;-92
2021/10/06 04:30:20;;;;;;;7.70;3.08;;;6.80;99.90;;;;;;5090061;28;20040;-91
2021/10/06 04:33:07;;;;;;;8.80;4.93;;;6.90;99.90;;;;;;5086940;28;20040;-91
2021/10/06 04:35:55;;;;;;;9.30;3.55;;;7.00;99.90;;;;;;5100213;28;20055;-91
2021/10/06 04:38:43;;;;;;;10.43;3.78;;;7.10;99.90;;;;;;5089202;28;20491;-92
2021/10/06 04:41:40;;;;;;;8.77;3.22;;;7.20;99.90;;;;;;5077956;28;20067;-91
2021/10/06 04:44:30;;;;;;;5.03;2.80;;;7.30;99.90;;;;;;5077613;28;20055;-91
2021/10/06 04:47:20;;;;;;;8.63;2.92;;;7.30;99.90;;;;;;5079237;28;20559;-89
2021/10/06 04:54:17;;;;;;;9.98;2.90;;;7.40;99.90;;;;;;5077506;28;20024;-89
2021/10/06 04:57:31;;;;;;;7.22;2.22;;;7.60;99.90;;;;;;5075934;28;20107;-90
2021/10/06 05:00:42;;;;;;;5.72;2.15;;;7.70;99.90;;;;;;5064691;28;20040;-91
2021/10/06 05:03:42;;;;;;;4.85;1.40;;;7.90;99.90;;;;;;5082539;28;20181;-89
2021/10/06 05:06:33;;;;;;;3.55;1.90;;;8.00;99.90;;;;;;5084362;28;20040;-94
2021/10/06 05:09:24;;;;;;;5.75;1.55;;;8.00;99.90;;;;;;5082075;28;20044;-92
2021/10/06 05:12:14;;;;;;;9.10;1.77;;;7.90;99.90;;;;;;5094313;28;20329;-94
2021/10/06 05:15:05;;;;;;;8.25;1.73;;;7.90;99.90;;;;;;5083701;28;20044;-93
2021/10/06 05:17:55;;;;;;;4.88;1.30;;;7.80;99.90;;;;;;5060798;28;20067;-92
2021/10/06 05:21:12;;;;;;;8.20;1.80;;;7.70;99.90;;;;;;5075459;28;20133;-94
2021/10/06 05:23:59;;;;;;;6.00;1.55;;;7.70;99.90;;;;;;5054160;28;20137;-92
2021/10/06 05:26:52;;;;;;;5.10;1.80;;;7.60;99.90;;;;;;5053071;28;20056;-92
2021/10/06 05:29:40;;;;;;;8.30;1.70;;;7.60;99.90;;;;;;5090057;28;20076;-89
2021/10/06 05:38:02;;;;;;;;;;;;;;;;;;;;;
2021/10/06 06:10:36;;;;;;;8.65;2.25;;;7.50;99.90;;;;;;5850668;23;20530;-92
2021/10/06 06:21:13;;;;;;;4.75;1.85;;;7.50;99.90;;;;;;4954853;29;20054;-92
2021/10/06 06:28:22;;;;;;;8.75;1.77;;;7.50;99.90;;;;;;4926611;29;20670;-92
2021/10/06 06:31:51;;;;;;;3.92;1.90;;;7.60;99.90;;;;;;4872295;29;20065;-91
2021/10/06 06:38:42;;;;;;;;;;;;;;;;;;;;;
2021/10/06 06:41:50;;;;;;;8.57;2.00;;;7.80;99.90;;;;;;4785627;29;20064;-91
2021/10/06 06:44:45;;;;;;;5.13;1.83;;;8.00;99.90;;;;;;4865931;29;20065;-92
2021/10/06 06:47:47;;;;;;;8.38;2.15;;;8.10;99.90;;;;;;4886309;29;20109;-93
2021/10/06 07:07:13;;;;;;;7.60;1.52;;;9.20;99.90;;;;;;4924991;29;20048;-91
2021/10/06 07:14:22;;;;;;;4.55;1.42;;;9.60;99.90;;;;;;4901867;29;20060;-92
2021/10/06 07:17:23;;;;;;;2.83;1.15;;;9.80;99.90;;;;;;4884220;29;20068;-92
2021/10/06 07:20:36;;;;;;;4.90;2.22;;;9.70;99.90;;;;;;4888531;29;20490;-92
2021/10/06 07:23:49;;;;;;;8.25;1.90;;;9.70;99.90;;;;;;4841224;29;20060;-93
2021/10/06 07:26:49;;;;;;;4.78;1.63;;;9.90;99.90;;;;;;4829275;29;20062;-89
2021/10/06 07:29:43;;;;;;;3.70;1.23;;;10.00;99.90;;;;;;4838285;29;20054;-90
2021/10/06 07:32:48;;;;;;;3.47;1.40;;;10.20;99.90;;;;;;4823106;29;20176;-91
2021/10/06 07:35:40;;;;;;;6.40;1.45;;;10.20;99.90;;;;;;4809935;29;20066;-94
2021/10/06 07:38:36;;;;;;;10.35;2.22;;;10.30;99.90;;;;;;4796900;29;20614;-93
2021/10/06 07:41:59;;;;;;;4.43;1.23;;;10.40;99.90;;;;;;4855063;29;20061;-93
2021/10/06 07:45:07;;;;;;;7.68;1.42;;;10.20;99.90;;;;;;4911480;29;20140;-93
2021/10/06 07:47:59;;;;;;;5.55;1.10;;;10.30;99.90;;;;;;4923849;29;20058;-93
2021/10/06 07:50:49;;;;;;;6.00;1.23;;;10.60;99.90;;;;;;4914799;29;20036;-91
2021/10/06 07:53:42;;;;;;;5.85;1.65;;;10.90;99.90;;;;;;4926288;29;20054;-92
2021/10/06 07:56:29;;;;;;;;;;;11.40;99.90;;;;;;4930352;29;20044;-94
2021/10/06 07:59:17;;;;;;;1.92;1.20;;;11.70;99.90;;;;;;4936326;29;19923;-92
2021/10/06 08:02:06;;;;;;;6.28;1.67;;;12.00;99.90;;;;;;4929346;29;20114;-90
2021/10/06 08:04:54;;;;;;;5.93;1.67;;;11.70;99.90;;;;;;4964958;28;20046;-92
2021/10/06 08:07:59;;;;;;;7.03;1.67;;;11.80;99.90;;;;;;4965106;28;20114;-92
2021/10/06 08:11:17;;;;;;;8.07;1.55;;;12.00;99.90;;;;;;4906846;29;20131;-92
2021/10/06 08:14:09;;;;;;;4.85;1.35;;;12.00;99.90;;;;;;4904328;29;20044;-94
2021/10/06 08:17:29;;;;;;;3.42;1.10;;;12.00;99.90;;;;;;4908766;29;20091;-93
2021/10/06 08:20:20;;;;;;;4.25;1.23;;;12.20;99.90;;;;;;4902266;29;20049;-94
2021/10/06 08:23:21;;;;;;;3.50;0.95;;;12.30;99.90;;;;;;4879102;29;20076;-92
2021/10/06 08:26:51;;;;;;;6.15;1.35;;;12.40;99.90;;;;;;4894126;29;20127;-92
2021/10/06 08:30:30;;;;;;;5.25;1.30;;;12.50;99.90;;;;;;4969810;28;20107;-93
2021/10/06 08:33:35;;;;;;;4.53;1.48;;;12.20;99.90;;;;;;4954348;28;20416;-92
2021/10/06 08:40:27;;;;;;;4.40;1.20;;;12.10;99.90;;;;;;5017118;23;20128;-93
2021/10/06 08:43:39;;;;;;;6.38;1.42;;;11.80;99.90;;;;;;5013311;28;20038;-92
2021/10/06 08:46:59;;;;;;;6.82;1.73;;;11.30;99.90;;;;;;5018973;28;20050;-92
2021/10/06 08:54:17;;;;;;;5.65;1.50;;;10.70;99.90;;;;;;4949318;29;20115;-94
2021/10/06 08:57:19;;;;;;;4.05;1.33;;;10.80;99.90;;;;;;4950627;28;20050;-92
2021/10/06 09:00:22;;;;;;;;;;;;;;;;;;;;;
2021/10/06 09:08:17;;;;;;;;;;;;;;;;;;;;;
2021/10/06 09:11:32;;;;;;;;;;;;;;;;;;;;;
2021/10/06 09:15:08;;;;;;;;;;;;;;;;;;;;;
2021/10/06 09:22:33;;;;;;;4.32;1.35;;;13.10;99.90;;;;;;4788837;30;20055;-92
2021/10/06 09:34:10;;;;;;;;;;;;;;;;;;;;;
2021/10/06 09:37:34;;;;;;;;;;;;;;;;;;;;;
2021/10/06 09:53:12;;;;;;;4.70;0.95;;;18.60;75.10;;;;;;4882368;29;20071;-92
2021/10/06 10:00:33;;;;;;;3.47;0.90;;;15.30;87.40;;;;;;4942844;29;20079;-91
2021/10/06 10:03:51;;;;;;;3.90;1.10;;;14.30;92.10;;;;;;4947386;29;20494;-92
2021/10/06 10:07:38;;;;;;;6.18;1.33;;;14.00;93.70;;;;;;4943858;29;20194;-92
2021/10/06 10:11:02;;;;;;;5.72;1.10;;;13.60;95.00;;;;;;4953465;29;20099;-93
2021/10/06 10:15:20;;;;;;;;;;;;;;;;;;;;;
2021/10/06 10:22:29;;;;;;;4.15;1.42;;;13.70;99.90;;;;;;4946723;29;20051;-92
2021/10/06 10:34:21;;;;;;;;;;;;;;;;;;;;;
2021/10/06 10:38:10;;;;;;;;;;;;;;;;;;;;;
2021/10/06 10:41:01;;;;;;;;;;;16.60;92.70;;;;;;4853386;29;20053;-93
2021/10/06 10:52:51;;;;;;;2.95;0.95;;;19.40;75.00;;;;;;4789425;29;20047;-93
2021/10/06 10:56:25;;;;;;;4.25;0.98;;;20.80;67.80;;;;;;4764175;30;20142;-91
2021/10/06 11:03:22;;;;;;;2.78;1.13;;;16.80;75.70;;;;;;4868735;29;20167;-90
2021/10/06 11:06:40;;;;;;;3.13;0.85;;;15.60;80.70;;;;;;4898451;29;20049;-91
2021/10/06 11:09:54;;;;;;;5.03;1.20;;;15.20;84.60;;;;;;4898440;29;20139;-93
2021/10/06 11:13:43;;;;;;;8.02;0.90;;;14.80;84.80;;;;;;4929360;29;20055;-91
2021/10/06 11:17:10;;;;;;;6.85;1.10;;;14.70;87.90;;;;;;4946046;28;20047;-92
2021/10/06 11:21:02;;;;;;;2.92;1.02;;;14.90;85.20;;;;;;4976685;28;20193;-91
2021/10/06 11:24:06;;;;;;;6.30;1.23;;;14.90;84.10;;;;;;5003913;28;20088;-92
2021/10/06 11:27:55;;;;;;;5.55;1.17;;;15.80;81.70;;;;;;4957774;29;20071;-90
2021/10/06 11:31:11;;;;;;;6.90;0.88;;;15.60;80.70;;;;;;4950455;29;20051;-92
2021/10/06 11:34:25;;;;;;;1.67;0.80;;;15.20;84.40;;;;;;4958022;28;20400;-91
2021/10/06 11:37:36;;;;;;;4.03;1.00;;;15.60;85.40;;;;;;4957406;29;20044;-92
2021/10/06 11:40:55;;;;;;;;;;;;;;;;;;;;;
2021/10/06 11:52:00;;;;;;;2.90;0.90;;;15.30;87.50;;;;;;4969159;28;20046;-91
2021/10/06 11:55:00;;;;;;;2.05;0.95;;;16.30;80.40;;;;;;4998872;28;20060;-92
2021/10/06 11:58:25;;;;;;;;;;;16.10;82.00;;;;;;5016731;28;20060;-92
2021/10/06 12:01:35;;;;;;;5.20;1.10;;;16.40;84.70;;;;;;4931464;29;19942;-93
2021/10/06 12:04:40;;;;;;;2.08;0.90;;;16.10;80.70;;;;;;4937144;29;20035;-93
2021/10/06 12:40:02;;;;;;;1.38;0.70;;;17.90;91.10;;;;;;4980057;28;20054;-93
2021/10/06 13:05:16;;;;;;;;;;;;;;;;;;;;;
2021/10/06 13:13:16;;;;;;;;;;;;;;;;;;;;;
2021/10/06 13:24:20;;;;;;;5.18;1.08;;;18.80;59.90;;;;;;4802887;29;20140;-91
2021/10/06 13:27:37;;;;;;;;;;;;;;;;;;;;;
2021/10/06 13:31:18;;;;;;;;;;;;;;;;;;;;;
2021/10/06 13:34:16;;;;;;;2.28;0.60;;;20.50;58.10;;;;;;4931608;28;20053;-90
2021/10/06 13:37:27;;;;;;;4.47;0.80;;;21.60;55.10;;;;;;5031103;28;20454;-91
2021/10/06 13:40:20;;;;;;;3.95;1.00;;;22.00;52.70;;;;;;5028945;28;20120;-92
2021/10/06 13:43:17;;;;;;;3.10;0.80;;;20.30;52.80;;;;;;5017084;28;20061;-91
2021/10/06 13:46:23;;;;;;;2.83;0.85;;;18.50;57.50;;;;;;5029514;28;20053;-92
2021/10/06 13:49:22;;;;;;;7.10;1.27;;;17.80;62.20;;;;;;5037872;28;20072;-92
2021/10/06 13:52:59;;;;;;;3.05;1.10;;;17.80;63.70;;;;;;5035131;28;20051;-93
2021/10/06 13:55:53;;;;;;;1.30;0.70;;;19.40;59.20;;;;;;5023015;28;20042;-92
2021/10/06 13:58:52;;;;;;;1.48;0.70;;;19.50;57.30;;;;;;5038085;28;20038;-92
2021/10/06 14:01:42;;;;;;;3.65;0.68;;;18.20;59.00;;;;;;5030363;28;20125;-91
2021/10/06 14:04:42;;;;;;;;;;;;;;;;;;;;;
2021/10/06 14:08:03;;;;;;;;;;;;;;;;;;;;;
2021/10/06 14:11:26;;;;;;;3.60;1.08;;;14.80;72.60;;;;;;5027430;28;20385;-92
2021/10/06 14:14:13;;;;;;;5.68;1.08;;;13.70;83.00;;;;;;5037764;28;20052;-91
2021/10/06 14:17:30;;;;;;;4.13;0.95;;;13.00;90.90;;;;;;5022406;28;20057;-92
2021/10/06 14:20:48;;;;;;;9.73;1.60;;;12.60;95.00;;;;;;4946600;28;20043;-92
2021/10/06 14:24:25;;;;;;;5.78;1.27;;;12.20;99.60;;;;;;5045136;28;20048;-92
2021/10/06 14:36:06;;;;;;;3.10;1.05;;;11.90;99.90;;;;;;4945886;28;20053;-91
2021/10/06 14:43:16;;;;;;;3.58;1.30;;;12.10;99.90;;;;;;4939516;28;20078;-91
2021/10/06 14:46:06;;;;;;;1.55;1.00;;;12.30;99.90;;;;;;4977611;28;20042;-92
2021/10/06 14:50:00;;;;;;;;;;;;;;;;;;;;;
2021/10/06 14:53:11;;;;;;;5.30;1.30;;;12.50;99.90;;;;;;4971337;28;20057;-93
2021/10/06 14:56:48;;;;;;;3.80;1.15;;;12.50;99.90;;;;;;4903094;29;20048;-93
2021/10/06 15:00:46;;;;;;;10.38;1.48;;;12.40;99.90;;;;;;4902967;29;20088;-94
2021/10/06 15:04:30;;;;;;;5.47;1.27;;;12.30;99.90;;;;;;4910311;29;20049;-92
2021/10/06 15:07:30;;;;;;;;;;;;;;;;;;;;;
2021/10/06 15:11:01;;;;;;;4.22;1.20;;;12.20;99.90;;;;;;4970468;28;20061;-92
2021/10/06 15:13:53;;;;;;;3.85;1.30;;;12.10;99.90;;;;;;4971481;28;20067;-91
2021/10/06 15:29:19;;;;;;;3.58;1.65;;;12.10;99.90;;;;;;5038814;22;20111;-92
2021/10/06 15:32:40;;;;;;;5.35;1.23;;;12.10;99.90;;;;;;5029321;28;20127;-91
2021/10/06 15:35:31;;;;;;;2.75;1.05;;;12.10;99.90;;;;;;5022355;28;20049;-92
2021/10/06 15:38:19;;;;;;;7.43;1.42;;;12.00;99.90;;;;;;5016592;28;20049;-91
2021/10/06 15:41:18;;;;;;;3.67;1.38;;;11.90;99.90;;;;;;5047284;28;20046;-92
2021/10/06 15:44:08;;;;;;;5.75;1.45;;;11.90;99.90;;;;;;5025114;28;20402;-91
2021/10/06 15:47:01;;;;;;;6.95;1.52;;;11.90;99.90;;;;;;5007149;28;20690;-91
2021/10/06 15:49:56;;;;;;;4.75;1.45;;;11.90;99.90;;;;;;5027217;28;20045;-91
2021/10/06 15:52:48;;;;;;;2.22;0.88;;;11.90;99.90;;;;;;5036427;28;20057;-93
2021/10/06 15:55:35;;;;;;;2.65;0.85;;;11.70;99.90;;;;;;5042404;28;20044;-91
2021/10/06 15:58:46;;;;;;;0.73;0.60;;;11.50;99.90;;;;;;5019524;28;20048;-90
2021/10/06 16:01:37;;;;;;;3.15;0.90;;;11.40;99.90;;;;;;5013474;28;20048;-92
2021/10/06 16:04:25;;;;;;;3.70;0.90;;;11.20;99.90;;;;;;5052186;28;20060;-93
2021/10/06 16:07:13;;;;;;;3.65;1.02;;;11.00;99.90;;;;;;5029866;28;20466;-93
2021/10/06 16:10:05;;;;;;;2.95;1.10;;;10.80;99.90;;;;;;5036467;28;20151;-92
2021/10/06 16:12:55;;;;;;;5.28;1.30;;;10.60;99.90;;;;;;5020056;28;20046;-91
2021/10/06 16:15:44;;;;;;;1.92;0.98;;;10.50;99.90;;;;;;5040077;28;20147;-91
2021/10/06 16:18:32;;;;;;;1.70;1.13;;;10.40;99.90;;;;;;5011798;28;20476;-92
2021/10/06 16:21:26;;;;;;;2.92;1.20;;;10.20;99.90;;;;;;5006592;28;20045;-91
2021/10/06 16:24:35;;;;;;;1.13;0.90;;;10.10;99.90;;;;;;5023941;28;20474;-94
2021/10/06 16:27:24;;;;;;;3.03;1.55;;;10.00;99.90;;;;;;5032380;28;20385;-93
2021/10/06 16:30:17;;;;;;;2.65;1.23;;;9.90;99.90;;;;;;5030887;28;20057;-93
2021/10/06 16:33:14;;;;;;;;;;;;;;;;;;;;;
2021/10/06 16:36:05;;;;;;;2.63;1.27;;;9.90;99.90;;;;;;5012766;28;20208;-93
2021/10/06 16:39:13;;;;;;;1.35;1.00;;;9.80;99.90;;;;;;5022487;28;20204;-92
2021/10/06 16:42:00;;;;;;;3.80;1.65;;;9.90;99.90;;;;;;5015304;28;20108;-93
2021/10/06 16:45:15;;;;;;;3.78;1.88;;;9.90;99.90;;;;;;4949793;28;20628;-94
2021/10/06 16:48:25;;;;;;;2.17;1.40;;;9.80;99.90;;;;;;4955972;28;20146;-93
2021/10/06 16:51:25;;;;;;;1.55;1.23;;;9.80;99.90;;;;;;4939576;29;20043;-94
2021/10/06 16:54:12;;;;;;;1.73;1.10;;;9.80;99.90;;;;;;4941513;28;20039;-92
2021/10/06 16:57:26;;;;;;;1.58;0.90;;;9.70;99.90;;;;;;4953208;29;20218;-93
2021/10/06 17:00:14;;;;;;;3.08;1.10;;;9.60;99.90;;;;;;4955739;28;20075;-92
2021/10/06 17:03:27;;;;;;;;;;;;;;;;;;;;;
2021/10/06 17:07:27;;;;;;;;;;;;;;;;;;;;;
2021/10/06 17:11:02;;;;;;;2.08;1.17;;;9.60;99.90;;;;;;5004679;28;20038;-92
2021/10/06 17:15:05;;;;;;;2.30;1.30;;;9.50;99.90;;;;;;4990458;28;20051;-93
2021/10/06 17:18:30;;;;;;;4.00;1.50;;;9.60;99.90;;;;;;4979246;28;20129;-92
2021/10/06 17:21:31;;;;;;;5.65;1.30;;;9.60;99.90;;;;;;4978548;28;20384;-91
2021/10/06 17:24:21;;;;;;;2.40;1.38;;;9.60;99.90;;;;;;4968189;28;20069;-92
2021/10/06 17:27:11;;;;;;;2.95;1.80;;;9.60;99.90;;;;;;4970473;28;20050;-90
2021/10/06 17:29:58;;;;;;;3.40;2.30;;;9.50;99.90;;;;;;5017181;28;20084;-92
2021/10/06 17:32:46;;;;;;;5.43;2.38;;;9.50;99.90;;;;;;5044844;28;20056;-94
2021/10/06 17:35:33;;;;;;;7.07;1.80;;;9.50;99.90;;;;;;5032583;28;20044;-89
2021/10/06 17:38:21;;;;;;;4.30;1.80;;;9.50;99.90;;;;;;5035993;28;20082;-89
2021/10/06 17:41:08;;;;;;;1.55;1.20;;;9.50;99.90;;;;;;5039261;28;20053;-93
2021/10/06 17:43:57;;;;;;;4.00;1.42;;;9.50;99.90;;;;;;5031166;28;20053;-93
2021/10/06 17:46:45;;;;;;;1.65;1.33;;;9.50;99.90;;;;;;5038736;28;20072;-90
2021/10/06 17:49:33;;;;;;;3.70;1.70;;;9.50;99.90;;;;;;5025463;28;20100;-91
2021/10/06 17:52:23;;;;;;;3.15;1.52;;;9.50;99.90;;;;;;5027958;28;20115;-93
2021/10/06 17:55:46;;;;;;;2.85;1.40;;;9.50;99.90;;;;;;5036083;28;20049;-92
2021/10/06 17:58:36;;;;;;;3.30;1.63;;;9.20;99.90;;;;;;5028314;28;20092;-93
2021/10/06 18:01:27;;;;;;;3.45;1.60;;;9.10;99.90;;;;;;5023317;28;20048;-92
2021/10/06 18:04:15;;;;;;;4.65;2.00;;;9.00;99.90;;;;;;5036257;28;20065;-92
2021/10/06 18:07:07;;;;;;;5.60;2.17;;;9.00;99.90;;;;;;5038110;28;20037;-92
2021/10/06 18:09:54;;;;;;;8.20;2.80;;;8.90;99.90;;;;;;5034105;28;20451;-93
2021/10/06 18:12:43;;;;;;;6.30;3.40;;;8.90;99.90;;;;;;5034872;28;20041;-93
2021/10/06 18:15:31;;;;;;;6.32;2.70;;;8.90;99.90;;;;;;5035369;28;20045;-92
2021/10/06 18:18:18;;;;;;;6.15;2.75;;;8.80;99.90;;;;;;5008474;28;20200;-93
2021/10/06 18:21:11;;;;;;;4.95;1.90;;;8.90;99.90;;;;;;5040014;28;20065;-88
2021/10/06 18:23:58;;;;;;;4.35;1.67;;;8.80;99.90;;;;;;5045495;28;20064;-91
2021/10/06 18:26:46;;;;;;;5.63;2.40;;;8.70;99.90;;;;;;5034065;28;20083;-94
2021/10/06 18:29:34;;;;;;;8.40;2.20;;;8.60;99.90;;;;;;5037780;28;20060;-91
2021/10/06 18:32:21;;;;;;;5.97;2.60;;;8.60;99.90;;;;;;5022712;28;20049;-92
2021/10/06 18:35:09;;;;;;;5.25;2.40;;;8.50;99.90;;;;;;5036138;28;20065;-89
2021/10/06 18:37:59;;;;;;;4.80;1.70;;;8.50;99.90;;;;;;5021601;28;20049;-91
2021/10/06 18:40:48;;;;;;;6.70;2.17;;;8.40;99.90;;;;;;5008542;28;20052;-92
2021/10/06 18:43:35;;;;;;;4.63;2.17;;;8.50;99.90;;;;;;5033283;28;20034;-92
2021/10/06 18:46:23;;;;;;;7.68;3.22;;;8.50;99.90;;;;;;5026051;28;20390;-91
2021/10/06 18:49:12;;;;;;;2.22;1.75;;;8.50;99.90;;;;;;5026650;28;20072;-92
2021/10/06 18:52:00;;;;;;;4.53;1.85;;;8.50;99.90;;;;;;5032329;28;20053;-92
2021/10/06 18:54:51;;;;;;;2.15;1.55;;;8.50;99.90;;;;;;5026729;28;20049;-90
2021/10/06 18:57:41;;;;;;;4.78;2.75;;;8.50;99.90;;;;;;5034624;28;20049;-92
2021/10/06 19:00:29;;;;;;;5.78;1.73;;;8.60;99.90;;;;;;5030323;28;20045;-90
2021/10/06 19:03:16;;;;;;;2.60;1.80;;;8.60;99.90;;;;;;5017943;28;20053;-91
2021/10/06 19:06:04;;;;;;;3.00;1.90;;;8.60;99.90;;;;;;5037858;28;20060;-91
2021/10/06 19:08:51;;;;;;;7.25;2.15;;;8.70;99.90;;;;;;5033576;28;20057;-89
2021/10/06 19:11:38;;;;;;;5.55;2.30;;;8.70;99.90;;;;;;5019427;28;20050;-93
2021/10/06 19:14:26;;;;;;;4.82;1.77;;;8.70;99.90;;;;;;5032667;28;20042;-92
2021/10/06 19:17:17;;;;;;;2.42;1.60;;;8.70;99.90;;;;;;5028286;28;20044;-93
2021/10/06 19:20:07;;;;;;;4.68;2.42;;;8.80;99.90;;;;;;5033227;28;20488;-90
2021/10/06 19:22:55;;;;;;;5.75;1.98;;;8.70;99.90;;;;;;5043193;28;20045;-92
2021/10/06 19:25:43;;;;;;;3.90;1.70;;;8.70;99.90;;;;;;5003935;28;20053;-87
2021/10/06 19:28:34;;;;;;;3.45;1.73;;;8.70;99.90;;;;;;5021808;28;20041;-88
2021/10/06 19:31:24;;;;;;;4.38;1.60;;;8.70;99.90;;;;;;5017587;28;20048;-86
2021/10/06 19:34:12;;;;;;;2.45;1.50;;;8.80;99.90;;;;;;5014122;28;20045;-86
2021/10/06 19:37:00;;;;;;;3.53;1.80;;;8.80;99.90;;;;;;5013286;28;20053;-85
2021/10/06 19:39:48;;;;;;;4.25;1.70;;;8.80;99.90;;;;;;5032664;28;20046;-89
2021/10/06 19:42:36;;;;;;;4.28;2.17;;;8.80;99.90;;;;;;5019038;28;20052;-89
2021/10/06 19:45:24;;;;;;;3.80;1.85;;;8.80;99.90;;;;;;5033650;28;20056;-88
2021/10/06 19:48:14;;;;;;;4.10;2.05;;;8.80;99.90;;;;;;5023341;28;20041;-86
2021/10/06 19:51:03;;;;;;;2.88;2.13;;;8.80;99.90;;;;;;5031966;28;20041;-86
2021/10/06 19:53:50;;;;;;;5.30;2.42;;;8.80;99.90;;;;;;5015075;28;20335;-87
2021/10/06 19:56:38;;;;;;;4.28;3.00;;;8.80;99.90;;;;;;5032274;28;20175;-87
2021/10/06 19:59:25;;;;;;;6.68;2.50;;;8.80;99.90;;;;;;4993438;28;20080;-88
2021/10/06 20:02:16;;;;;;;9.00;2.65;;;8.80;99.90;;;;;;5004516;28;20045;-86
2021/10/06 20:05:04;;;;;;;6.35;2.55;;;8.70;99.90;;;;;;5031536;28;20083;-88
2021/10/06 20:07:52;;;;;;;4.32;2.70;;;8.70;99.90;;;;;;5032851;28;20379;-89
2021/10/06 20:10:40;;;;;;;5.85;2.50;;;8.60;99.90;;;;;;5034179;28;20077;-86